Time;durP1;ratioP1;P1;durP2;ratioP2;P2;SDS_P1;SDS_P2;PMS_P1;PMS_P2;Temp;Humidity;BMP_temperature;BMP_pressure;BME280_temperature;BME280_humidity;BME280_pressure;Samples;Min_cycle;Max_cycle;Signal;HPM_P1;HPM_P2
2022/08/28 00:07:32;;;;;;;15.18;6.15;;;16.20;99.90;;;;;;20931422;22;20117;-78
2022/08/28 00:17:33;;;;;;;8.98;5.68;;;16.20;99.90;;;;;;21017803;28;20037;-79
2022/08/28 00:27:52;;;;;;;9.40;6.17;;;16.20;99.90;;;;;;21021850;28;20048;-76
2022/08/28 00:37:53;;;;;;;9.32;6.03;;;16.10;99.90;;;;;;21032156;28;20036;-79
2022/08/28 00:47:55;;;;;;;9.57;6.63;;;16.00;99.90;;;;;;21055614;28;20044;-79
2022/08/28 00:57:59;;;;;;;12.20;7.72;;;15.90;99.90;;;;;;21046775;28;20051;-78
2022/08/28 01:08:00;;;;;;;22.33;9.57;;;15.80;99.90;;;;;;21029243;28;20048;-77
2022/08/28 01:18:06;;;;;;;15.68;8.60;;;15.20;99.90;;;;;;21041341;28;20066;-79
2022/08/28 01:28:11;;;;;;;14.50;8.40;;;15.40;99.90;;;;;;21102319;28;20040;-78
2022/08/28 01:38:12;;;;;;;16.02;8.45;;;15.50;99.90;;;;;;21090294;28;20553;-79
2022/08/28 01:48:14;;;;;;;12.40;7.17;;;15.40;99.90;;;;;;21089605;28;20093;-78
2022/08/28 01:58:15;;;;;;;12.65;7.55;;;15.20;99.90;;;;;;21099223;28;20665;-79
2022/08/28 02:08:17;;;;;;;;;;;15.20;99.90;;;;;;21088101;28;20074;-79
2022/08/28 02:18:17;;;;;;;11.82;8.27;;;15.00;99.90;;;;;;21094274;28;19923;-79
2022/08/28 02:28:18;;;;;;;12.60;8.00;;;15.10;99.90;;;;;;21088818;28;20044;-78
2022/08/28 02:38:19;;;;;;;14.13;9.17;;;15.20;99.90;;;;;;21085031;28;20047;-78
2022/08/28 02:48:20;;;;;;;14.20;8.30;;;14.80;99.90;;;;;;21084676;28;20082;-78
2022/08/28 02:58:21;;;;;;;15.63;9.27;;;14.90;99.90;;;;;;21085185;28;20043;-78
2022/08/28 03:08:23;;;;;;;;;;;15.00;99.90;;;;;;21049930;28;20123;-79
2022/08/28 03:18:26;;;;;;;15.35;8.70;;;15.10;99.90;;;;;;21065279;28;19998;-79
2022/08/28 03:28:30;;;;;;;21.25;10.50;;;15.10;99.90;;;;;;21073695;28;20036;-78
2022/08/28 03:38:32;;;;;;;16.17;9.57;;;15.20;99.90;;;;;;21080903;28;20051;-78
2022/08/28 03:48:35;;;;;;;16.90;9.52;;;14.70;99.90;;;;;;21060575;28;20063;-79
2022/08/28 03:58:37;;;;;;;13.13;9.02;;;14.60;99.90;;;;;;21079712;28;20071;-79
2022/08/28 04:08:38;;;;;;;13.45;8.38;;;14.80;99.90;;;;;;21078949;28;20109;-77
2022/08/28 04:18:41;;;;;;;16.27;10.00;;;14.90;99.90;;;;;;21089311;28;20040;-79
2022/08/28 04:28:42;;;;;;;13.65;9.30;;;15.10;99.90;;;;;;21059049;28;20047;-79
2022/08/28 04:38:44;;;;;;;;;;;15.20;99.90;;;;;;21077602;28;20086;-79
2022/08/28 04:48:44;;;;;;;21.20;11.02;;;15.20;99.90;;;;;;21086882;28;19937;-78
2022/08/28 04:58:45;;;;;;;20.23;8.77;;;15.30;99.90;;;;;;21075079;28;20075;-78
2022/08/28 05:08:46;;;;;;;16.40;10.77;;;15.40;99.90;;;;;;21054161;28;20532;-79
2022/08/28 05:18:48;;;;;;;14.13;10.27;;;15.50;99.90;;;;;;21101182;28;20523;-77
2022/08/28 05:28:49;;;;;;;17.58;9.65;;;15.60;99.90;;;;;;21104860;28;20048;-78
2022/08/28 05:38:50;;;;;;;14.67;10.30;;;15.70;99.90;;;;;;21098682;28;20125;-78
2022/08/28 05:48:51;;;;;;;17.83;10.43;;;15.80;99.90;;;;;;21101981;28;20046;-77
2022/08/28 05:58:52;;;;;;;16.40;10.53;;;15.80;99.90;;;;;;21086539;22;20308;-76
2022/08/28 06:09:03;;;;;;;18.33;10.47;;;15.90;99.90;;;;;;20981613;28;20047;-76
2022/08/28 06:19:05;;;;;;;15.80;10.40;;;16.00;99.90;;;;;;20971818;28;20055;-76
2022/08/28 06:29:10;;;;;;;14.70;9.60;;;16.10;99.90;;;;;;20919168;28;20032;-76
2022/08/28 06:39:12;;;;;;;17.33;10.55;;;16.40;99.90;;;;;;20925275;28;20048;-76
2022/08/28 06:49:13;;;;;;;21.15;11.68;;;16.70;99.90;;;;;;20920972;28;20041;-76
2022/08/28 06:59:14;;;;;;;17.83;12.05;;;16.70;99.90;;;;;;20910068;28;20459;-77
2022/08/28 07:09:15;;;;;;;17.77;11.67;;;16.90;99.90;;;;;;20926122;28;20052;-76
2022/08/28 07:19:16;;;;;;;14.97;10.40;;;17.10;99.90;;;;;;20915897;28;20041;-77
2022/08/28 07:29:18;;;;;;;17.30;10.83;;;17.40;99.90;;;;;;20919562;28;20036;-76
2022/08/28 07:39:19;;;;;;;17.40;12.05;;;17.70;99.90;;;;;;20896354;28;20123;-76
2022/08/28 07:49:22;;;;;;;23.27;14.45;;;18.00;99.90;;;;;;20876284;28;20411;-75
2022/08/28 07:59:22;;;;;;;20.23;12.57;;;18.20;99.90;;;;;;20920065;28;20044;-77
2022/08/28 08:09:24;;;;;;;22.03;13.70;;;18.50;99.90;;;;;;20910709;28;20186;-77
2022/08/28 08:19:24;;;;;;;17.35;10.32;;;18.70;99.90;;;;;;20892103;28;20115;-76
2022/08/28 08:29:27;;;;;;;19.80;11.73;;;19.00;99.90;;;;;;20907700;28;20156;-76
2022/08/28 08:39:28;;;;;;;20.05;11.63;;;18.90;99.90;;;;;;20890858;28;20041;-76
2022/08/28 08:49:34;;;;;;;17.57;11.17;;;19.10;99.90;;;;;;20979958;28;20039;-77
2022/08/28 08:59:37;;;;;;;14.80;10.38;;;19.20;99.90;;;;;;20991121;28;20044;-77
2022/08/28 09:09:45;;;;;;;17.02;9.85;;;19.50;99.90;;;;;;20976318;28;20135;-77
2022/08/28 09:19:47;;;;;;;15.00;9.30;;;20.30;99.90;;;;;;20981343;28;20098;-78
2022/08/28 09:30:01;;;;;;;12.02;8.45;;;21.50;99.90;;;;;;20952728;28;20072;-78
2022/08/28 09:40:20;;;;;;;16.17;7.78;;;22.50;99.90;;;;;;20923182;28;20037;-78
2022/08/28 09:50:41;;;;;;;14.27;7.95;;;21.70;99.90;;;;;;20918320;28;20037;-78
2022/08/28 10:01:03;;;;;;;8.73;6.03;;;22.40;99.90;;;;;;20920994;28;20614;-78
2022/08/28 10:11:45;;;;;;;9.35;5.22;;;23.40;99.90;;;;;;20936673;28;20033;-78
2022/08/28 10:22:04;;;;;;;9.52;4.65;;;23.90;99.90;;;;;;20867525;28;20073;-79
2022/08/28 10:32:21;;;;;;;6.53;4.53;;;24.20;99.90;;;;;;20921017;28;20039;-78
2022/08/28 10:42:37;;;;;;;5.35;4.15;;;24.40;99.90;;;;;;20931241;28;20376;-78
2022/08/28 10:52:45;;;;;;;10.15;4.50;;;24.60;99.90;;;;;;20923311;28;20096;-78
2022/08/28 11:02:53;;;;;;;6.35;4.22;;;25.30;99.90;;;;;;20928985;28;20052;-78
2022/08/28 11:12:54;;;;;;;7.70;4.47;;;25.30;99.90;;;;;;20938464;28;20471;-78
2022/08/28 11:23:36;;;;;;;6.68;3.78;;;25.80;99.90;;;;;;20943389;28;20045;-78
2022/08/28 11:33:44;;;;;;;5.60;3.80;;;26.80;99.90;;;;;;20883436;28;20431;-76
2022/08/28 11:43:46;;;;;;;7.45;4.18;;;27.30;99.90;;;;;;20922487;28;20040;-77
2022/08/28 11:53:53;;;;;;;6.38;3.97;;;25.90;99.90;;;;;;20883350;28;20033;-75
2022/08/28 12:04:17;;;;;;;4.10;3.65;;;26.20;99.90;;;;;;20929134;22;20048;-79
2022/08/28 12:14:23;;;;;;;5.57;3.58;;;27.50;99.90;;;;;;21007105;28;20418;-79
2022/08/28 12:24:27;;;;;;;4.85;3.65;;;28.30;99.90;;;;;;20974048;28;20080;-80
2022/08/28 12:34:48;;;;;;;7.55;3.53;;;28.40;99.90;;;;;;20929074;28;20045;-79
2022/08/28 12:44:49;;;;;;;;;;;27.80;99.90;;;;;;20927326;28;20053;-80
2022/08/28 12:54:54;;;;;;;8.20;3.20;;;27.70;99.90;;;;;;20908139;28;19915;-80
2022/08/28 13:04:57;;;;;;;6.43;3.22;;;27.60;99.90;;;;;;20905213;28;20044;-86
2022/08/28 13:14:58;;;;;;;3.58;2.90;;;29.10;99.90;;;;;;20891899;28;20492;-85
2022/08/28 13:25:01;;;;;;;7.80;3.13;;;29.20;99.90;;;;;;20889326;28;20047;-85
2022/08/28 13:35:15;;;;;;;7.20;3.35;;;29.70;99.90;;;;;;20887847;28;20503;-85
2022/08/28 13:45:16;;;;;;;4.55;2.80;;;29.40;99.90;;;;;;20848112;28;20036;-85
2022/08/28 13:55:17;;;;;;;4.43;3.10;;;29.50;99.90;;;;;;20903345;28;20041;-85
2022/08/28 14:05:18;;;;;;;3.60;3.15;;;29.90;99.90;;;;;;20886351;28;20052;-85
2022/08/28 14:15:19;;;;;;;4.63;2.47;;;29.40;99.90;;;;;;20886787;28;20099;-85
2022/08/28 14:25:20;;;;;;;5.00;3.47;;;29.90;99.90;;;;;;20899995;28;20033;-84
2022/08/28 14:35:21;;;;;;;3.83;2.28;;;29.30;99.90;;;;;;20884186;28;20041;-84
2022/08/28 14:45:21;;;;;;;4.87;3.20;;;29.10;99.90;;;;;;20884543;28;20069;-85
2022/08/28 14:55:22;;;;;;;5.85;2.97;;;28.60;99.90;;;;;;20883371;28;20268;-84
2022/08/28 15:05:23;;;;;;;4.32;3.08;;;29.00;99.90;;;;;;20882862;28;20196;-84
2022/08/28 15:15:24;;;;;;;4.80;2.93;;;28.60;99.90;;;;;;20879793;28;20065;-85
2022/08/28 15:25:25;;;;;;;5.35;2.38;;;29.20;99.90;;;;;;20914567;28;20359;-85
2022/08/28 15:35:25;;;;;;;5.55;2.90;;;29.40;99.90;;;;;;20879520;28;20032;-85
2022/08/28 15:45:26;;;;;;;4.60;2.80;;;29.30;99.90;;;;;;20895368;28;20040;-86
2022/08/28 15:55:28;;;;;;;4.15;3.10;;;28.60;99.90;;;;;;20956565;28;20094;-85
2022/08/28 16:05:34;;;;;;;6.07;3.42;;;28.60;99.90;;;;;;20976957;28;20040;-84
2022/08/28 16:15:35;;;;;;;9.00;3.35;;;27.70;99.90;;;;;;20957962;28;20041;-85
2022/08/28 16:25:36;;;;;;;6.18;3.33;;;27.70;99.90;;;;;;20906764;28;20510;-85
2022/08/28 16:35:41;;;;;;;4.65;3.22;;;27.00;99.90;;;;;;20889744;28;20041;-85
2022/08/28 16:45:44;;;;;;;8.27;3.13;;;26.30;99.90;;;;;;20874466;28;20047;-86
2022/08/28 16:55:45;;;;;;;6.63;3.53;;;25.40;99.90;;;;;;20874190;28;20041;-85
2022/08/28 17:05:46;;;;;;;5.18;2.78;;;25.20;99.90;;;;;;20889831;28;20403;-85
2022/08/28 17:15:47;;;;;;;6.55;3.65;;;25.00;99.90;;;;;;20873261;28;20090;-85
2022/08/28 17:25:48;;;;;;;5.90;3.15;;;24.70;99.90;;;;;;20890528;28;20084;-85
2022/08/28 17:35:49;;;;;;;;;;;24.50;99.90;;;;;;20889428;28;20049;-85
2022/08/28 17:45:50;;;;;;;6.57;3.60;;;24.00;99.90;;;;;;20873351;28;20283;-85
2022/08/28 17:55:50;;;;;;;;;;;23.90;99.90;;;;;;20871895;28;20466;-85
2022/08/28 18:05:51;;;;;;;5.53;3.90;;;23.60;99.90;;;;;;20955119;22;19974;-74
2022/08/28 18:15:53;;;;;;;;;;;23.10;99.90;;;;;;20984707;28;20036;-75
2022/08/28 18:25:54;;;;;;;6.20;4.15;;;23.00;99.90;;;;;;21001002;28;20015;-75
2022/08/28 18:35:55;;;;;;;;;;;22.70;99.90;;;;;;21001049;28;20131;-74
2022/08/28 18:45:58;;;;;;;11.15;4.88;;;22.10;99.90;;;;;;20993162;28;20382;-74
2022/08/28 18:56:00;;;;;;;9.85;4.75;;;21.80;99.90;;;;;;20980604;28;20546;-75
2022/08/28 19:06:00;;;;;;;8.98;5.00;;;21.60;99.90;;;;;;20996825;28;20040;-74
2022/08/28 19:16:01;;;;;;;7.93;4.60;;;21.40;99.90;;;;;;20988072;28;20033;-74
2022/08/28 19:26:03;;;;;;;10.77;4.83;;;21.30;99.90;;;;;;20980353;28;20380;-73
2022/08/28 19:36:04;;;;;;;;;;;21.20;99.90;;;;;;20989771;28;20082;-74
2022/08/28 19:46:10;;;;;;;5.57;4.50;;;20.80;99.90;;;;;;20991896;28;19912;-74
2022/08/28 19:56:12;;;;;;;7.20;4.88;;;20.50;99.90;;;;;;20990280;28;20547;-74
2022/08/28 20:06:13;;;;;;;8.32;4.53;;;20.50;99.90;;;;;;20982898;28;20122;-74
2022/08/28 20:16:14;;;;;;;7.03;3.85;;;20.60;99.90;;;;;;20992179;28;20025;-75
2022/08/28 20:26:15;;;;;;;7.77;4.07;;;20.40;99.90;;;;;;20989274;28;20040;-75
2022/08/28 20:36:18;;;;;;;7.70;4.63;;;20.20;99.90;;;;;;20989560;28;20082;-74
2022/08/28 20:46:19;;;;;;;8.02;5.05;;;20.10;99.90;;;;;;20989108;28;20036;-74
2022/08/28 20:56:19;;;;;;;6.17;4.50;;;20.00;99.90;;;;;;20988594;28;20089;-74
2022/08/28 21:06:20;;;;;;;12.57;5.03;;;19.80;99.90;;;;;;20988019;28;20037;-74
2022/08/28 21:16:21;;;;;;;7.17;5.03;;;19.70;99.90;;;;;;20987882;28;20047;-74
2022/08/28 21:26:22;;;;;;;7.73;5.07;;;19.60;99.90;;;;;;20986225;28;20045;-74
2022/08/28 21:36:23;;;;;;;8.00;4.73;;;19.40;99.90;;;;;;21024845;28;20105;-74
2022/08/28 21:46:24;;;;;;;11.87;4.80;;;19.30;99.90;;;;;;21001505;28;20051;-74
2022/08/28 21:56:26;;;;;;;9.27;5.00;;;19.10;99.90;;;;;;21004177;28;20122;-75
2022/08/28 22:06:27;;;;;;;10.73;5.30;;;19.10;99.90;;;;;;21066838;28;20043;-74
2022/08/28 22:16:28;;;;;;;8.03;5.60;;;19.30;99.90;;;;;;21086034;28;20040;-75
2022/08/28 22:26:29;;;;;;;7.83;5.07;;;19.20;99.90;;;;;;21085848;28;20036;-74
2022/08/28 22:36:30;;;;;;;9.00;5.77;;;19.00;99.90;;;;;;21066759;28;20048;-74
2022/08/28 22:46:31;;;;;;;9.30;4.82;;;19.10;99.90;;;;;;21083477;28;20036;-74
2022/08/28 22:56:32;;;;;;;9.13;5.00;;;18.80;99.90;;;;;;21083696;28;20050;-73
2022/08/28 23:06:33;;;;;;;8.70;5.40;;;18.80;99.90;;;;;;21082405;28;20089;-74
2022/08/28 23:16:33;;;;;;;7.37;5.20;;;18.70;99.90;;;;;;21081621;28;20036;-74
2022/08/28 23:26:35;;;;;;;8.50;5.77;;;18.50;99.90;;;;;;21080801;28;20039;-74
2022/08/28 23:36:35;;;;;;;9.93;5.40;;;18.50;99.90;;;;;;21080131;28;20047;-74
2022/08/28 23:46:37;;;;;;;9.17;5.73;;;18.20;99.90;;;;;;21061489;28;20717;-74
2022/08/28 23:56:37;;;;;;;13.77;5.90;;;18.00;99.90;;;;;;21078303;28;20111;-75
